sensor_id;sensor_type;location;lat;lon;timestamp;P1;durP1;ratioP1;P2;durP2;ratioP2
75165;SDS011;63747;48.042;10.088;2024-02-26T00:01:16;3.43;;;2.30;;
75165;SDS011;63747;48.042;10.088;2024-02-26T00:04:16;4.63;;;2.30;;
75165;SDS011;63747;48.042;10.088;2024-02-26T00:07:17;3.40;;;2.17;;
75165;SDS011;63747;48.042;10.088;2024-02-26T00:10:18;4.40;;;2.67;;
75165;SDS011;63747;48.042;10.088;2024-02-26T00:13:18;4.07;;;2.60;;
75165;SDS011;63747;48.042;10.088;2024-02-26T00:16:20;3.92;;;2.50;;
75165;SDS011;63747;48.042;10.088;2024-02-26T00:19:21;4.77;;;2.50;;
75165;SDS011;63747;48.042;10.088;2024-02-26T00:22:21;4.70;;;2.23;;
75165;SDS011;63747;48.042;10.088;2024-02-26T00:25:22;3.67;;;2.57;;
75165;SDS011;63747;48.042;10.088;2024-02-26T00:28:23;4.27;;;2.47;;
75165;SDS011;63747;48.042;10.088;2024-02-26T00:34:25;4.45;;;2.72;;
75165;SDS011;63747;48.042;10.088;2024-02-26T00:37:26;4.47;;;2.70;;
75165;SDS011;63747;48.042;10.088;2024-02-26T00:40:27;4.63;;;2.70;;
75165;SDS011;63747;48.042;10.088;2024-02-26T00:43:27;4.73;;;3.00;;
75165;SDS011;63747;48.042;10.088;2024-02-26T00:46:28;3.40;;;2.50;;
75165;SDS011;63747;48.042;10.088;2024-02-26T00:49:28;4.10;;;2.73;;
75165;SDS011;63747;48.042;10.088;2024-02-26T00:52:29;4.13;;;2.63;;
75165;SDS011;63747;48.042;10.088;2024-02-26T00:55:30;3.20;;;2.50;;
75165;SDS011;63747;48.042;10.088;2024-02-26T00:58:31;4.53;;;2.60;;
75165;SDS011;63747;48.042;10.088;2024-02-26T01:01:31;5.03;;;3.20;;
75165;SDS011;63747;48.042;10.088;2024-02-26T01:04:32;5.27;;;2.90;;
75165;SDS011;63747;48.042;10.088;2024-02-26T01:10:35;6.68;;;3.13;;
75165;SDS011;63747;48.042;10.088;2024-02-26T01:13:36;5.30;;;3.07;;
75165;SDS011;63747;48.042;10.088;2024-02-26T01:16:37;3.97;;;2.90;;
75165;SDS011;63747;48.042;10.088;2024-02-26T01:19:37;6.97;;;2.73;;
75165;SDS011;63747;48.042;10.088;2024-02-26T01:22:38;3.93;;;3.07;;
75165;SDS011;63747;48.042;10.088;2024-02-26T01:25:40;4.70;;;2.58;;
75165;SDS011;63747;48.042;10.088;2024-02-26T01:28:42;4.32;;;3.00;;
75165;SDS011;63747;48.042;10.088;2024-02-26T01:31:43;7.17;;;3.10;;
75165;SDS011;63747;48.042;10.088;2024-02-26T01:34:44;4.83;;;3.00;;
75165;SDS011;63747;48.042;10.088;2024-02-26T01:37:44;4.60;;;3.00;;
75165;SDS011;63747;48.042;10.088;2024-02-26T01:40:45;5.30;;;3.20;;
75165;SDS011;63747;48.042;10.088;2024-02-26T01:43:46;4.27;;;2.97;;
75165;SDS011;63747;48.042;10.088;2024-02-26T01:46:46;3.73;;;2.50;;
75165;SDS011;63747;48.042;10.088;2024-02-26T01:49:48;4.40;;;2.92;;
75165;SDS011;63747;48.042;10.088;2024-02-26T01:52:49;4.55;;;2.92;;
75165;SDS011;63747;48.042;10.088;2024-02-26T01:58:51;6.78;;;3.00;;
75165;SDS011;63747;48.042;10.088;2024-02-26T02:01:54;5.53;;;3.23;;
75165;SDS011;63747;48.042;10.088;2024-02-26T02:04:57;5.30;;;3.00;;
75165;SDS011;63747;48.042;10.088;2024-02-26T02:07:58;4.00;;;3.13;;
75165;SDS011;63747;48.042;10.088;2024-02-26T02:10:59;4.70;;;3.10;;
75165;SDS011;63747;48.042;10.088;2024-02-26T02:14:00;4.67;;;3.40;;
75165;SDS011;63747;48.042;10.088;2024-02-26T02:17:01;5.33;;;3.33;;
75165;SDS011;63747;48.042;10.088;2024-02-26T02:20:02;5.33;;;3.10;;
75165;SDS011;63747;48.042;10.088;2024-02-26T02:23:03;5.47;;;3.20;;
75165;SDS011;63747;48.042;10.088;2024-02-26T02:26:04;5.13;;;3.20;;
75165;SDS011;63747;48.042;10.088;2024-02-26T02:29:05;5.93;;;3.20;;
75165;SDS011;63747;48.042;10.088;2024-02-26T02:32:07;3.90;;;2.60;;
75165;SDS011;63747;48.042;10.088;2024-02-26T02:35:08;4.53;;;3.00;;
75165;SDS011;63747;48.042;10.088;2024-02-26T02:38:09;4.67;;;2.80;;
75165;SDS011;63747;48.042;10.088;2024-02-26T02:41:10;5.07;;;2.53;;
75165;SDS011;63747;48.042;10.088;2024-02-26T02:44:11;3.93;;;2.60;;
75165;SDS011;63747;48.042;10.088;2024-02-26T02:47:11;5.53;;;2.90;;
75165;SDS011;63747;48.042;10.088;2024-02-26T02:50:12;4.20;;;2.83;;
75165;SDS011;63747;48.042;10.088;2024-02-26T02:53:13;3.90;;;2.60;;
75165;SDS011;63747;48.042;10.088;2024-02-26T02:56:16;4.05;;;2.72;;
75165;SDS011;63747;48.042;10.088;2024-02-26T02:59:16;4.10;;;2.73;;
75165;SDS011;63747;48.042;10.088;2024-02-26T03:02:17;4.00;;;2.93;;
75165;SDS011;63747;48.042;10.088;2024-02-26T03:05:18;4.90;;;2.87;;
75165;SDS011;63747;48.042;10.088;2024-02-26T03:08:18;4.53;;;3.07;;
75165;SDS011;63747;48.042;10.088;2024-02-26T03:11:19;4.43;;;2.97;;
75165;SDS011;63747;48.042;10.088;2024-02-26T03:14:20;4.07;;;2.63;;
75165;SDS011;63747;48.042;10.088;2024-02-26T03:17:21;4.10;;;2.73;;
75165;SDS011;63747;48.042;10.088;2024-02-26T03:20:24;6.40;;;3.50;;
75165;SDS011;63747;48.042;10.088;2024-02-26T03:23:24;4.17;;;2.80;;
75165;SDS011;63747;48.042;10.088;2024-02-26T03:26:25;5.07;;;3.10;;
75165;SDS011;63747;48.042;10.088;2024-02-26T03:29:26;3.80;;;2.53;;
75165;SDS011;63747;48.042;10.088;2024-02-26T03:32:27;4.93;;;3.40;;
75165;SDS011;63747;48.042;10.088;2024-02-26T03:35:27;3.63;;;2.83;;
75165;SDS011;63747;48.042;10.088;2024-02-26T03:38:28;7.10;;;3.70;;
75165;SDS011;63747;48.042;10.088;2024-02-26T03:41:30;4.95;;;3.20;;
75165;SDS011;63747;48.042;10.088;2024-02-26T03:47:32;4.20;;;3.05;;
75165;SDS011;63747;48.042;10.088;2024-02-26T03:50:33;4.43;;;3.00;;
75165;SDS011;63747;48.042;10.088;2024-02-26T03:53:34;3.92;;;2.78;;
75165;SDS011;63747;48.042;10.088;2024-02-26T03:56:35;3.97;;;2.90;;
75165;SDS011;63747;48.042;10.088;2024-02-26T03:59:35;4.10;;;3.00;;
75165;SDS011;63747;48.042;10.088;2024-02-26T04:02:36;4.27;;;2.60;;
75165;SDS011;63747;48.042;10.088;2024-02-26T04:05:37;4.20;;;3.10;;
75165;SDS011;63747;48.042;10.088;2024-02-26T04:08:38;4.63;;;3.17;;
75165;SDS011;63747;48.042;10.088;2024-02-26T04:11:38;6.33;;;2.90;;
75165;SDS011;63747;48.042;10.088;2024-02-26T04:14:39;4.63;;;2.67;;
75165;SDS011;63747;48.042;10.088;2024-02-26T04:17:40;3.27;;;2.70;;
75165;SDS011;63747;48.042;10.088;2024-02-26T04:23:42;3.70;;;2.75;;
75165;SDS011;63747;48.042;10.088;2024-02-26T04:26:43;4.20;;;3.30;;
75165;SDS011;63747;48.042;10.088;2024-02-26T04:29:43;4.20;;;2.87;;
75165;SDS011;63747;48.042;10.088;2024-02-26T04:32:44;5.97;;;4.10;;
75165;SDS011;63747;48.042;10.088;2024-02-26T04:35:45;4.83;;;3.30;;
75165;SDS011;63747;48.042;10.088;2024-02-26T04:38:45;4.17;;;3.43;;
75165;SDS011;63747;48.042;10.088;2024-02-26T04:41:46;3.83;;;2.83;;
75165;SDS011;63747;48.042;10.088;2024-02-26T04:44:47;4.13;;;3.00;;
75165;SDS011;63747;48.042;10.088;2024-02-26T04:47:48;7.37;;;3.60;;
75165;SDS011;63747;48.042;10.088;2024-02-26T04:50:48;4.47;;;3.30;;
75165;SDS011;63747;48.042;10.088;2024-02-26T04:53:49;5.23;;;3.43;;
75165;SDS011;63747;48.042;10.088;2024-02-26T04:56:49;4.37;;;3.37;;
75165;SDS011;63747;48.042;10.088;2024-02-26T04:59:50;6.43;;;3.57;;
75165;SDS011;63747;48.042;10.088;2024-02-26T05:02:51;5.93;;;3.50;;
75165;SDS011;63747;48.042;10.088;2024-02-26T05:05:52;7.70;;;3.33;;
75165;SDS011;63747;48.042;10.088;2024-02-26T05:08:52;6.77;;;3.80;;
75165;SDS011;63747;48.042;10.088;2024-02-26T05:11:53;4.67;;;3.30;;
75165;SDS011;63747;48.042;10.088;2024-02-26T05:14:54;5.50;;;3.50;;
75165;SDS011;63747;48.042;10.088;2024-02-26T05:17:54;4.33;;;3.33;;
75165;SDS011;63747;48.042;10.088;2024-02-26T05:20:55;6.53;;;4.20;;
75165;SDS011;63747;48.042;10.088;2024-02-26T05:23:55;8.60;;;5.93;;
75165;SDS011;63747;48.042;10.088;2024-02-26T05:26:56;5.63;;;3.73;;
75165;SDS011;63747;48.042;10.088;2024-02-26T05:29:57;5.03;;;3.43;;
75165;SDS011;63747;48.042;10.088;2024-02-26T05:32:57;5.37;;;3.73;;
75165;SDS011;63747;48.042;10.088;2024-02-26T05:35:58;6.37;;;3.63;;
75165;SDS011;63747;48.042;10.088;2024-02-26T05:39:03;5.20;;;3.33;;
75165;SDS011;63747;48.042;10.088;2024-02-26T05:42:04;4.10;;;3.10;;
75165;SDS011;63747;48.042;10.088;2024-02-26T05:45:05;7.93;;;3.83;;
75165;SDS011;63747;48.042;10.088;2024-02-26T05:48:06;5.20;;;3.30;;
75165;SDS011;63747;48.042;10.088;2024-02-26T05:51:07;4.63;;;3.13;;
75165;SDS011;63747;48.042;10.088;2024-02-26T05:54:08;3.63;;;2.80;;
75165;SDS011;63747;48.042;10.088;2024-02-26T05:57:10;6.03;;;3.20;;
75165;SDS011;63747;48.042;10.088;2024-02-26T06:00:11;4.90;;;3.03;;
75165;SDS011;63747;48.042;10.088;2024-02-26T06:03:12;4.70;;;2.97;;
75165;SDS011;63747;48.042;10.088;2024-02-26T06:06:13;5.47;;;3.00;;
75165;SDS011;63747;48.042;10.088;2024-02-26T06:12:15;2.92;;;2.47;;
75165;SDS011;63747;48.042;10.088;2024-02-26T06:15:16;4.63;;;2.87;;
75165;SDS011;63747;48.042;10.088;2024-02-26T06:18:17;4.43;;;3.05;;
75165;SDS011;63747;48.042;10.088;2024-02-26T06:21:18;4.13;;;3.07;;
75165;SDS011;63747;48.042;10.088;2024-02-26T06:24:19;6.10;;;3.50;;
75165;SDS011;63747;48.042;10.088;2024-02-26T06:27:20;4.00;;;2.97;;
75165;SDS011;63747;48.042;10.088;2024-02-26T06:30:21;4.35;;;3.05;;
75165;SDS011;63747;48.042;10.088;2024-02-26T06:33:22;5.17;;;4.00;;
75165;SDS011;63747;48.042;10.088;2024-02-26T06:36:23;8.90;;;3.60;;
75165;SDS011;63747;48.042;10.088;2024-02-26T06:39:23;4.33;;;3.03;;
75165;SDS011;63747;48.042;10.088;2024-02-26T06:42:24;4.30;;;3.00;;
75165;SDS011;63747;48.042;10.088;2024-02-26T06:45:25;4.53;;;3.10;;
75165;SDS011;63747;48.042;10.088;2024-02-26T06:48:25;6.60;;;3.50;;
75165;SDS011;63747;48.042;10.088;2024-02-26T06:51:26;5.63;;;3.63;;
75165;SDS011;63747;48.042;10.088;2024-02-26T06:54:27;6.17;;;3.60;;
75165;SDS011;63747;48.042;10.088;2024-02-26T06:57:27;7.07;;;4.20;;
75165;SDS011;63747;48.042;10.088;2024-02-26T07:00:28;6.37;;;4.20;;
75165;SDS011;63747;48.042;10.088;2024-02-26T07:03:29;10.10;;;5.03;;
75165;SDS011;63747;48.042;10.088;2024-02-26T07:06:30;9.32;;;3.83;;
75165;SDS011;63747;48.042;10.088;2024-02-26T07:09:31;7.90;;;3.83;;
75165;SDS011;63747;48.042;10.088;2024-02-26T07:12:32;4.47;;;2.80;;
75165;SDS011;63747;48.042;10.088;2024-02-26T07:15:32;4.20;;;2.90;;
75165;SDS011;63747;48.042;10.088;2024-02-26T07:18:33;4.87;;;3.00;;
75165;SDS011;63747;48.042;10.088;2024-02-26T07:21:34;4.47;;;2.93;;
75165;SDS011;63747;48.042;10.088;2024-02-26T07:24:34;6.27;;;3.03;;
75165;SDS011;63747;48.042;10.088;2024-02-26T07:27:35;5.93;;;3.47;;
75165;SDS011;63747;48.042;10.088;2024-02-26T07:30:36;5.53;;;2.67;;
75165;SDS011;63747;48.042;10.088;2024-02-26T07:33:36;11.13;;;6.10;;
75165;SDS011;63747;48.042;10.088;2024-02-26T07:36:37;19.67;;;9.73;;
75165;SDS011;63747;48.042;10.088;2024-02-26T07:39:38;39.87;;;20.50;;
75165;SDS011;63747;48.042;10.088;2024-02-26T07:42:38;44.30;;;21.40;;
75165;SDS011;63747;48.042;10.088;2024-02-26T07:45:39;37.57;;;19.53;;
75165;SDS011;63747;48.042;10.088;2024-02-26T07:48:40;31.20;;;17.43;;
75165;SDS011;63747;48.042;10.088;2024-02-26T07:51:41;34.53;;;17.67;;
75165;SDS011;63747;48.042;10.088;2024-02-26T07:54:42;31.00;;;14.80;;
75165;SDS011;63747;48.042;10.088;2024-02-26T07:57:43;15.20;;;7.47;;
75165;SDS011;63747;48.042;10.088;2024-02-26T08:00:44;5.33;;;2.47;;
75165;SDS011;63747;48.042;10.088;2024-02-26T08:03:46;6.03;;;2.20;;
75165;SDS011;63747;48.042;10.088;2024-02-26T08:06:47;2.87;;;2.10;;
75165;SDS011;63747;48.042;10.088;2024-02-26T08:09:47;4.37;;;2.40;;
75165;SDS011;63747;48.042;10.088;2024-02-26T08:12:48;6.07;;;2.30;;
75165;SDS011;63747;48.042;10.088;2024-02-26T08:15:49;5.57;;;2.27;;
75165;SDS011;63747;48.042;10.088;2024-02-26T08:18:50;5.47;;;2.43;;
75165;SDS011;63747;48.042;10.088;2024-02-26T08:21:50;5.90;;;2.37;;
75165;SDS011;63747;48.042;10.088;2024-02-26T08:24:51;3.63;;;2.27;;
75165;SDS011;63747;48.042;10.088;2024-02-26T08:27:52;3.63;;;2.30;;
75165;SDS011;63747;48.042;10.088;2024-02-26T08:30:53;3.13;;;2.17;;
75165;SDS011;63747;48.042;10.088;2024-02-26T08:33:53;3.90;;;2.87;;
75165;SDS011;63747;48.042;10.088;2024-02-26T08:36:54;5.20;;;3.57;;
75165;SDS011;63747;48.042;10.088;2024-02-26T08:39:55;8.57;;;3.10;;
75165;SDS011;63747;48.042;10.088;2024-02-26T08:42:55;8.63;;;3.20;;
75165;SDS011;63747;48.042;10.088;2024-02-26T08:45:56;4.60;;;2.90;;
75165;SDS011;63747;48.042;10.088;2024-02-26T08:48:57;4.82;;;2.67;;
75165;SDS011;63747;48.042;10.088;2024-02-26T08:51:58;4.57;;;2.70;;
75165;SDS011;63747;48.042;10.088;2024-02-26T08:54:59;4.83;;;2.83;;
75165;SDS011;63747;48.042;10.088;2024-02-26T08:57:59;5.10;;;3.20;;
75165;SDS011;63747;48.042;10.088;2024-02-26T09:01:00;4.60;;;2.97;;
75165;SDS011;63747;48.042;10.088;2024-02-26T09:04:01;6.03;;;3.13;;
75165;SDS011;63747;48.042;10.088;2024-02-26T09:07:02;4.20;;;3.00;;
75165;SDS011;63747;48.042;10.088;2024-02-26T09:10:03;4.07;;;2.58;;
75165;SDS011;63747;48.042;10.088;2024-02-26T09:13:04;4.03;;;3.00;;
75165;SDS011;63747;48.042;10.088;2024-02-26T09:16:05;4.73;;;2.90;;
75165;SDS011;63747;48.042;10.088;2024-02-26T09:19:06;3.63;;;2.75;;
75165;SDS011;63747;48.042;10.088;2024-02-26T09:22:07;5.80;;;3.43;;
75165;SDS011;63747;48.042;10.088;2024-02-26T09:25:08;3.13;;;2.50;;
75165;SDS011;63747;48.042;10.088;2024-02-26T09:28:08;3.90;;;2.70;;
75165;SDS011;63747;48.042;10.088;2024-02-26T09:31:09;4.47;;;2.70;;
75165;SDS011;63747;48.042;10.088;2024-02-26T09:34:10;4.50;;;2.90;;
75165;SDS011;63747;48.042;10.088;2024-02-26T09:37:10;5.27;;;2.97;;
75165;SDS011;63747;48.042;10.088;2024-02-26T09:40:12;4.00;;;3.17;;
75165;SDS011;63747;48.042;10.088;2024-02-26T09:43:14;6.60;;;3.30;;
75165;SDS011;63747;48.042;10.088;2024-02-26T09:46:15;4.82;;;3.20;;
75165;SDS011;63747;48.042;10.088;2024-02-26T09:49:20;4.45;;;3.30;;
75165;SDS011;63747;48.042;10.088;2024-02-26T09:52:24;4.90;;;3.63;;
75165;SDS011;63747;48.042;10.088;2024-02-26T09:55:26;5.05;;;3.40;;
75165;SDS011;63747;48.042;10.088;2024-02-26T09:58:27;4.13;;;3.47;;
75165;SDS011;63747;48.042;10.088;2024-02-26T10:01:29;5.53;;;3.80;;
75165;SDS011;63747;48.042;10.088;2024-02-26T10:04:33;4.38;;;3.05;;
75165;SDS011;63747;48.042;10.088;2024-02-26T10:07:34;6.75;;;4.72;;
75165;SDS011;63747;48.042;10.088;2024-02-26T10:10:36;7.28;;;4.43;;
75165;SDS011;63747;48.042;10.088;2024-02-26T10:13:38;9.20;;;5.00;;
75165;SDS011;63747;48.042;10.088;2024-02-26T10:16:39;7.50;;;5.03;;
75165;SDS011;63747;48.042;10.088;2024-02-26T10:19:40;9.13;;;5.07;;
75165;SDS011;63747;48.042;10.088;2024-02-26T10:22:41;5.57;;;4.37;;
75165;SDS011;63747;48.042;10.088;2024-02-26T10:28:55;7.00;;;4.95;;
75165;SDS011;63747;48.042;10.088;2024-02-26T10:32:01;7.35;;;5.10;;
75165;SDS011;63747;48.042;10.088;2024-02-26T10:35:02;7.07;;;4.90;;
75165;SDS011;63747;48.042;10.088;2024-02-26T10:38:03;8.95;;;5.30;;
75165;SDS011;63747;48.042;10.088;2024-02-26T10:41:04;9.18;;;5.00;;
75165;SDS011;63747;48.042;10.088;2024-02-26T10:44:08;6.72;;;5.28;;
75165;SDS011;63747;48.042;10.088;2024-02-26T10:47:13;7.78;;;5.45;;
75165;SDS011;63747;48.042;10.088;2024-02-26T10:50:13;7.23;;;5.30;;
75165;SDS011;63747;48.042;10.088;2024-02-26T10:53:21;8.15;;;4.93;;
75165;SDS011;63747;48.042;10.088;2024-02-26T10:56:26;8.10;;;5.07;;
75165;SDS011;63747;48.042;10.088;2024-02-26T10:59:27;8.27;;;5.82;;
75165;SDS011;63747;48.042;10.088;2024-02-26T11:02:33;8.85;;;5.50;;
75165;SDS011;63747;48.042;10.088;2024-02-26T11:05:34;8.10;;;5.88;;
75165;SDS011;63747;48.042;10.088;2024-02-26T11:08:36;8.70;;;5.38;;
75165;SDS011;63747;48.042;10.088;2024-02-26T11:11:37;8.85;;;6.00;;
75165;SDS011;63747;48.042;10.088;2024-02-26T11:14:38;7.17;;;5.40;;
75165;SDS011;63747;48.042;10.088;2024-02-26T11:17:40;6.20;;;5.60;;
75165;SDS011;63747;48.042;10.088;2024-02-26T11:20:43;5.55;;;4.53;;
75165;SDS011;63747;48.042;10.088;2024-02-26T11:23:45;5.72;;;4.00;;
75165;SDS011;63747;48.042;10.088;2024-02-26T11:29:51;4.45;;;3.42;;
75165;SDS011;63747;48.042;10.088;2024-02-26T11:32:54;5.57;;;4.05;;
75165;SDS011;63747;48.042;10.088;2024-02-26T11:35:55;3.20;;;2.60;;
75165;SDS011;63747;48.042;10.088;2024-02-26T11:38:56;7.15;;;2.60;;
75165;SDS011;63747;48.042;10.088;2024-02-26T11:42:04;5.67;;;4.23;;
75165;SDS011;63747;48.042;10.088;2024-02-26T11:45:07;5.95;;;4.68;;
75165;SDS011;63747;48.042;10.088;2024-02-26T11:48:48;5.22;;;4.38;;
75165;SDS011;63747;48.042;10.088;2024-02-26T11:51:52;5.77;;;4.33;;
75165;SDS011;63747;48.042;10.088;2024-02-26T11:54:58;6.35;;;4.22;;
75165;SDS011;63747;48.042;10.088;2024-02-26T11:57:59;5.38;;;4.15;;
75165;SDS011;63747;48.042;10.088;2024-02-26T12:00:59;5.63;;;4.90;;
75165;SDS011;63747;48.042;10.088;2024-02-26T12:04:07;6.65;;;5.10;;
75165;SDS011;63747;48.042;10.088;2024-02-26T12:07:13;6.82;;;5.20;;
75165;SDS011;63747;48.042;10.088;2024-02-26T12:13:31;7.78;;;5.20;;
75165;SDS011;63747;48.042;10.088;2024-02-26T12:16:35;6.95;;;5.72;;
75165;SDS011;63747;48.042;10.088;2024-02-26T12:19:37;6.05;;;5.07;;
75165;SDS011;63747;48.042;10.088;2024-02-26T12:22:39;8.10;;;5.70;;
75165;SDS011;63747;48.042;10.088;2024-02-26T12:25:40;6.75;;;5.32;;
75165;SDS011;63747;48.042;10.088;2024-02-26T12:28:41;6.55;;;5.40;;
75165;SDS011;63747;48.042;10.088;2024-02-26T12:31:42;6.57;;;5.40;;
75165;SDS011;63747;48.042;10.088;2024-02-26T12:34:43;7.75;;;5.43;;
75165;SDS011;63747;48.042;10.088;2024-02-26T12:37:44;8.48;;;5.60;;
75165;SDS011;63747;48.042;10.088;2024-02-26T12:40:47;7.53;;;5.63;;
75165;SDS011;63747;48.042;10.088;2024-02-26T12:43:49;6.35;;;5.50;;
75165;SDS011;63747;48.042;10.088;2024-02-26T12:46:49;5.97;;;4.83;;
75165;SDS011;63747;48.042;10.088;2024-02-26T12:49:50;4.80;;;4.30;;
75165;SDS011;63747;48.042;10.088;2024-02-26T12:52:53;8.50;;;4.63;;
75165;SDS011;63747;48.042;10.088;2024-02-26T12:55:54;4.78;;;3.47;;
75165;SDS011;63747;48.042;10.088;2024-02-26T12:58:55;5.97;;;4.45;;
75165;SDS011;63747;48.042;10.088;2024-02-26T13:01:56;5.03;;;4.50;;
75165;SDS011;63747;48.042;10.088;2024-02-26T13:04:57;6.50;;;4.30;;
75165;SDS011;63747;48.042;10.088;2024-02-26T13:08:01;7.22;;;4.82;;
75165;SDS011;63747;48.042;10.088;2024-02-26T13:11:02;6.53;;;4.55;;
75165;SDS011;63747;48.042;10.088;2024-02-26T13:14:03;5.25;;;3.75;;
75165;SDS011;63747;48.042;10.088;2024-02-26T13:17:04;5.13;;;3.97;;
75165;SDS011;63747;48.042;10.088;2024-02-26T13:20:05;6.65;;;3.92;;
75165;SDS011;63747;48.042;10.088;2024-02-26T13:26:08;6.03;;;3.40;;
75165;SDS011;63747;48.042;10.088;2024-02-26T13:29:18;5.65;;;2.80;;
75165;SDS011;63747;48.042;10.088;2024-02-26T13:32:20;3.33;;;2.20;;
75165;SDS011;63747;48.042;10.088;2024-02-26T13:35:21;4.22;;;2.60;;
75165;SDS011;63747;48.042;10.088;2024-02-26T13:38:22;2.90;;;2.30;;
75165;SDS011;63747;48.042;10.088;2024-02-26T13:41:23;5.30;;;2.45;;
75165;SDS011;63747;48.042;10.088;2024-02-26T13:44:23;4.83;;;3.37;;
75165;SDS011;63747;48.042;10.088;2024-02-26T13:47:24;4.28;;;2.95;;
75165;SDS011;63747;48.042;10.088;2024-02-26T13:50:25;5.30;;;2.80;;
75165;SDS011;63747;48.042;10.088;2024-02-26T13:53:26;5.33;;;2.80;;
75165;SDS011;63747;48.042;10.088;2024-02-26T13:56:26;5.17;;;3.90;;
75165;SDS011;63747;48.042;10.088;2024-02-26T13:59:27;4.30;;;2.42;;
75165;SDS011;63747;48.042;10.088;2024-02-26T14:02:28;2.70;;;2.17;;
75165;SDS011;63747;48.042;10.088;2024-02-26T14:05:28;3.30;;;2.47;;
75165;SDS011;63747;48.042;10.088;2024-02-26T14:08:30;3.83;;;2.53;;
75165;SDS011;63747;48.042;10.088;2024-02-26T14:11:30;4.23;;;2.60;;
75165;SDS011;63747;48.042;10.088;2024-02-26T14:14:31;4.57;;;2.67;;
75165;SDS011;63747;48.042;10.088;2024-02-26T14:17:35;5.95;;;3.20;;
75165;SDS011;63747;48.042;10.088;2024-02-26T14:20:36;4.78;;;2.65;;
75165;SDS011;63747;48.042;10.088;2024-02-26T14:23:36;5.20;;;2.60;;
75165;SDS011;63747;48.042;10.088;2024-02-26T14:26:37;3.20;;;2.40;;
75165;SDS011;63747;48.042;10.088;2024-02-26T14:29:38;3.67;;;2.90;;
75165;SDS011;63747;48.042;10.088;2024-02-26T14:32:41;5.15;;;3.20;;
75165;SDS011;63747;48.042;10.088;2024-02-26T14:35:42;5.07;;;2.55;;
75165;SDS011;63747;48.042;10.088;2024-02-26T14:38:43;4.60;;;2.70;;
75165;SDS011;63747;48.042;10.088;2024-02-26T14:41:44;4.40;;;2.60;;
75165;SDS011;63747;48.042;10.088;2024-02-26T14:44:45;5.40;;;2.33;;
75165;SDS011;63747;48.042;10.088;2024-02-26T14:47:47;3.00;;;2.42;;
75165;SDS011;63747;48.042;10.088;2024-02-26T14:50:48;4.50;;;2.30;;
75165;SDS011;63747;48.042;10.088;2024-02-26T14:53:50;3.05;;;2.33;;
75165;SDS011;63747;48.042;10.088;2024-02-26T14:56:51;3.47;;;2.47;;
75165;SDS011;63747;48.042;10.088;2024-02-26T14:59:52;4.63;;;2.93;;
75165;SDS011;63747;48.042;10.088;2024-02-26T15:02:52;4.37;;;2.80;;
75165;SDS011;63747;48.042;10.088;2024-02-26T15:05:54;4.38;;;2.80;;
75165;SDS011;63747;48.042;10.088;2024-02-26T15:08:55;4.37;;;2.40;;
75165;SDS011;63747;48.042;10.088;2024-02-26T15:11:56;4.18;;;2.63;;
75165;SDS011;63747;48.042;10.088;2024-02-26T15:14:57;5.25;;;2.88;;
75165;SDS011;63747;48.042;10.088;2024-02-26T15:17:58;2.90;;;2.23;;
75165;SDS011;63747;48.042;10.088;2024-02-26T15:20:58;3.43;;;2.40;;
75165;SDS011;63747;48.042;10.088;2024-02-26T15:23:59;4.27;;;2.53;;
75165;SDS011;63747;48.042;10.088;2024-02-26T15:27:00;4.37;;;2.70;;
75165;SDS011;63747;48.042;10.088;2024-02-26T15:30:01;3.70;;;2.80;;
75165;SDS011;63747;48.042;10.088;2024-02-26T15:33:02;3.17;;;2.47;;
75165;SDS011;63747;48.042;10.088;2024-02-26T15:36:03;3.85;;;2.40;;
75165;SDS011;63747;48.042;10.088;2024-02-26T15:39:04;4.55;;;2.53;;
75165;SDS011;63747;48.042;10.088;2024-02-26T15:42:07;4.55;;;2.65;;
75165;SDS011;63747;48.042;10.088;2024-02-26T15:45:08;3.63;;;2.70;;
75165;SDS011;63747;48.042;10.088;2024-02-26T15:48:09;4.07;;;2.55;;
75165;SDS011;63747;48.042;10.088;2024-02-26T15:51:20;2.92;;;2.10;;
75165;SDS011;63747;48.042;10.088;2024-02-26T15:54:23;6.82;;;2.72;;
75165;SDS011;63747;48.042;10.088;2024-02-26T15:57:24;3.37;;;2.53;;
75165;SDS011;63747;48.042;10.088;2024-02-26T16:00:25;2.70;;;2.10;;
75165;SDS011;63747;48.042;10.088;2024-02-26T16:06:49;4.23;;;2.00;;
75165;SDS011;63747;48.042;10.088;2024-02-26T16:09:52;4.50;;;2.30;;
75165;SDS011;63747;48.042;10.088;2024-02-26T16:12:53;3.47;;;1.92;;
75165;SDS011;63747;48.042;10.088;2024-02-26T16:16:04;3.92;;;1.80;;
75165;SDS011;63747;48.042;10.088;2024-02-26T16:19:11;2.75;;;1.92;;
75165;SDS011;63747;48.042;10.088;2024-02-26T16:22:14;11.68;;;7.45;;
75165;SDS011;63747;48.042;10.088;2024-02-26T16:25:14;9.48;;;6.30;;
75165;SDS011;63747;48.042;10.088;2024-02-26T16:28:16;4.00;;;1.85;;
75165;SDS011;63747;48.042;10.088;2024-02-26T16:31:17;3.10;;;1.48;;
75165;SDS011;63747;48.042;10.088;2024-02-26T16:34:17;1.48;;;1.08;;
75165;SDS011;63747;48.042;10.088;2024-02-26T16:37:18;3.25;;;2.13;;
75165;SDS011;63747;48.042;10.088;2024-02-26T16:40:20;2.08;;;1.10;;
75165;SDS011;63747;48.042;10.088;2024-02-26T16:43:21;3.08;;;1.00;;
75165;SDS011;63747;48.042;10.088;2024-02-26T16:46:21;2.67;;;1.60;;
75165;SDS011;63747;48.042;10.088;2024-02-26T16:49:22;2.65;;;1.60;;
75165;SDS011;63747;48.042;10.088;2024-02-26T16:52:23;3.03;;;1.27;;
75165;SDS011;63747;48.042;10.088;2024-02-26T16:55:25;1.70;;;1.08;;
75165;SDS011;63747;48.042;10.088;2024-02-26T16:58:27;1.60;;;0.40;;
75165;SDS011;63747;48.042;10.088;2024-02-26T17:01:28;1.67;;;1.45;;
75165;SDS011;63747;48.042;10.088;2024-02-26T17:04:29;0.87;;;0.77;;
75165;SDS011;63747;48.042;10.088;2024-02-26T17:07:30;0.40;;;0.30;;
75165;SDS011;63747;48.042;10.088;2024-02-26T17:10:31;0.95;;;0.55;;
75165;SDS011;63747;48.042;10.088;2024-02-26T17:13:31;3.73;;;2.50;;
75165;SDS011;63747;48.042;10.088;2024-02-26T17:16:32;3.08;;;1.88;;
75165;SDS011;63747;48.042;10.088;2024-02-26T17:19:35;3.13;;;2.65;;
75165;SDS011;63747;48.042;10.088;2024-02-26T17:22:36;4.27;;;2.53;;
75165;SDS011;63747;48.042;10.088;2024-02-26T17:25:37;3.00;;;2.28;;
75165;SDS011;63747;48.042;10.088;2024-02-26T17:28:38;2.37;;;1.70;;
75165;SDS011;63747;48.042;10.088;2024-02-26T17:31:40;2.95;;;2.10;;
75165;SDS011;63747;48.042;10.088;2024-02-26T17:34:42;3.67;;;1.70;;
75165;SDS011;63747;48.042;10.088;2024-02-26T17:37:43;2.43;;;1.73;;
75165;SDS011;63747;48.042;10.088;2024-02-26T17:40:44;1.85;;;1.23;;
75165;SDS011;63747;48.042;10.088;2024-02-26T17:43:45;4.07;;;2.40;;
75165;SDS011;63747;48.042;10.088;2024-02-26T17:46:45;4.20;;;2.40;;
75165;SDS011;63747;48.042;10.088;2024-02-26T17:49:46;5.27;;;2.60;;
75165;SDS011;63747;48.042;10.088;2024-02-26T17:52:46;8.17;;;5.27;;
75165;SDS011;63747;48.042;10.088;2024-02-26T17:55:49;7.32;;;3.78;;
75165;SDS011;63747;48.042;10.088;2024-02-26T17:58:50;6.43;;;2.90;;
75165;SDS011;63747;48.042;10.088;2024-02-26T18:01:50;4.47;;;2.77;;
75165;SDS011;63747;48.042;10.088;2024-02-26T18:04:51;7.27;;;2.80;;
75165;SDS011;63747;48.042;10.088;2024-02-26T18:07:52;7.47;;;4.10;;
75165;SDS011;63747;48.042;10.088;2024-02-26T18:10:53;6.00;;;3.00;;
75165;SDS011;63747;48.042;10.088;2024-02-26T18:13:53;4.03;;;2.63;;
75165;SDS011;63747;48.042;10.088;2024-02-26T18:16:55;3.00;;;2.30;;
75165;SDS011;63747;48.042;10.088;2024-02-26T18:19:56;3.67;;;2.55;;
75165;SDS011;63747;48.042;10.088;2024-02-26T18:22:57;4.37;;;2.93;;
75165;SDS011;63747;48.042;10.088;2024-02-26T18:25:57;3.60;;;2.47;;
75165;SDS011;63747;48.042;10.088;2024-02-26T18:28:58;3.70;;;2.87;;